AirNav   Air Wisconsin pilot careers
 
 651 users online  

76F Van Zandt County Regional Airport
Wills Point, Texas, USA

GOING TO WILLS POINT?


FAA INFORMATION EFFECTIVE 09 NOVEMBER 2017

Location

FAA Identifier: 76F
Lat/Long: 32-40-53.1000N / 095-59-02.9000W
32-40.885000N / 095-59.048333W
32.6814167 / -95.9841389
(estimated)
Elevation: 522 ft. / 159.1 m (surveyed)
Variation: 06E (1985)
From city: 3 miles SE of WILLS POINT, TX
Time zone: UTC -6 (UTC -5 during Daylight Saving Time)
Zip code: 75169

Airport Operations

Airport use: Open to the public
Activation date: 08/1966
Control tower: no
ARTCC: FORT WORTH CENTER
FSS: FORT WORTH FLIGHT SERVICE STATION
NOTAMs facility: FTW (NOTAM-D service available)
Attendance: MON-FRI 0800-1700
Wind indicator: lighted
Segmented circle: yes
Beacon: white-green (lighted land airport)
Operates sunset to sunrise.

Airport Communications

CTAF/UNICOM: 122.725
WX ASOS at TRL (14 nm W): 119.275 (972-551-1334)

Nearby radio navigation aids

VOR radial/distance  VOR name  Freq  Var
CQYr016/32.0CEDAR CREEK VORTAC114.8006E
UIMr241/33.3QUITMAN VOR/DME114.0008E
TYRr298/35.3TYLER VOR/DME114.2006E
SLRr208/38.2SULPHUR SPRINGS VOR/DME109.0008E

 
NDB name  Hdg/Dist  Freq  Var  ID
TRAVIS103/14.226006EAVZ .- ...- --..
CADDO MILLS142/25.331606EMII -- .. ..
JECCA082/27.738806EJUG .--- ..- --.
MESQUITE103/28.624803EPQF .--. --.- ..-.
ATHENS340/32.326906EAHX .- .... -..-
CROSSROADS350/37.121508ECSZ -.-. ... --..

Airport Services

Fuel available: 100LL
Parking: tiedowns
Airframe service: MINOR
AIRFRAME & POWER PLANT REPAIRS BY PRIOR ARRANGEMENT, CALL 903-873-3381.
Powerplant service: MINOR
Bottled oxygen: NONE
Bulk oxygen: NONE

Runway Information

Runway 17/35

Dimensions: 3230 x 50 ft. / 985 x 15 m
Surface: asphalt, in excellent condition
Weight bearing capacity: 
Single wheel: 12.0
Runway edge lights: low intensity
RUNWAY 17  RUNWAY 35
Latitude: 32-41.151842N32-40.619055N
Longitude: 095-59.048067W095-59.047215W
Elevation: 522.0 ft.502.0 ft.
Gradient: 0.2%0.6% UP
Traffic pattern: leftleft
Runway heading: 174 magnetic, 180 true354 magnetic, 360 true
Markings: basic, in good conditionbasic, in good condition
Obstructions: 28 ft. tree, 900 ft. from runway, 175 ft. right of centerline, 25:1 slope to clear14 ft. trees, 377 ft. from runway, 87 ft. left of centerline, 12:1 slope to clear

Airport Ownership and Management from official FAA records

Ownership: Publicly-owned
Owner: CITY OF WILLS POINT
PO BOX 505
WILLS POINT, TX 75169
Phone 903-873-2578
Manager: PAM PEARSON
PO BOX 217
WILLS POINT, TX 75169
Phone 903-873-3381
ARPT PHYSICAL ADDRESS: 36671 STATE HWY 64.

Airport Operational Statistics

Aircraft based on the field: 14
Single engine airplanes: 12
Helicopters: 2
    
Aircraft operations: avg 92/week *
75% local general aviation
25% transient general aviation
* for 12-month period ending 17 May 2016

Additional Remarks

+68 FT ANTENNA 810 FT EAST OF RY CNTRLN.

Instrument Procedures

There are no published instrument procedures at 76F.

Some nearby airports with instrument procedures:

KTRL - Terrell Municipal Airport (14 nm W)
KGVT - Majors Airport (24 nm N)
3F9 - Mineola Airport-Wisener Field (24 nm E)
KJDD - Wood County Airport (25 nm E)
7F3 - Caddo Mills Municipal Airport (25 nm NW)
 
Loc | Ops | Rwys | IFR | FBO | Links
Com | Nav | Svcs | Stats | Notes


 
Area around 76F (Van Zandt County Regional Airport)
 
Road maps at: MapQuest Bing Google
 
Aerial photo
WARNING: Photo may not be current or correct
Aerial photo of 76F (Van Zandt County Regional Airport)
Taken in the Summer of 2010

Do you have a better or more recent aerial photo of Van Zandt County Regional Airport that you would like to share? If so, please send us your photo.

 
Sectional chart

 
Airport distance calculator
Flying to Van Zandt County Regional Airport? Find the distance to fly.

From to 76F

Sunrise and sunset
Times for 23-Nov-2017
 Local
(UTC-6)
 Zulu
(UTC)
Morning civil twilight06:3612:36
Sunrise07:0213:02
Sunset17:1923:19
Evening civil twilight17:4523:45

Current date and time
Zulu (UTC)  24-Nov-2017 00:08:11
Local (UTC-6)  23-Nov-2017 18:08:11
 
METAR
KTRL 
14nm W 
232353Z AUTO 16004KT 10SM CLR 14/M02 A3006 RMK AO2 SLP179 T01391017 10189 20139 58003 $
KGVT 
23nm N 
232350Z AUTO 00000KT 10SM CLR 11/01 A3006 RMK AO2
KJDD 
25nm E 
232355Z AUTO 00000KT 10SM CLR 10/01 A3007 RMK AO2
KF46 
27nm NW 
232355Z AUTO 15004KT 10SM CLR 15/M01 A3006 RMK AO2 T01511007 10183 20142
KHQZ 
28nm W 
232350Z 14004KT 10SM CLR 13/M04 A3006
TAF
KTYR 
35nm SE 
231720Z 2318/2418 23004KT P6SM SKC FM240100 18003KT P6SM SKC FM241500 18007KT P6SM SKC
NOTAMs
Click for the latest NOTAMs
NOTAMs are issued by the DoD/FAA and will open in a separate window not controlled by AirNav.

 

 
 

FBO, Fuel Providers, and Aircraft Ground Support

  
 Business Name 
 
 Contact 
 
 Services / Description 
 
Fuel Prices
 
Comments
  
Van Zandt County Regional Airport 903-873-3381
214-803-5621
[web site]
[email]
Aviation fuel, Aircraft parking (ramp or tiedown), Passenger terminal and lounge, Flight training, Courtesy transportation, Pilots lounge / snooze room, ...

More info about Van Zandt County Regional Airport
Avfuel
100LL
SS $3.75 
 Updated 26-Sep-2017
 
   1 read write
SS=Self service
Update Fuel Prices
 

Aviation Businesses, Services, and Facilities

  
 Business Name 
 
 Contact 
 
 Services / Description 
 
Distance
 
Comments
  
Code 1 Flight Training 210-884-2559
[web site]
[email]
Flight training, Aircraft rental

More info about Code 1 Flight Training
on airport  
   write
 

Would you like to see your business listed on this page?

 If your business provides an interesting product or service to pilots, flight crews, aircraft, or users of the Van Zandt County Regional Airport, you should consider listing it here.  To start the listing process, click on the button below
 
Add a business
 

Other Pages about Van Zandt County Regional Airport

Update a link
 
Copyright © AirNav, LLC. All rights reserved. Privacy Policy  Contact